IBE0942 LDZA-LEMD
Flight info
| Callsign | IBE0942 |
|---|---|
| Flight time | 2h 32m |
| Altitude | 37000 |
| Route | KOTOR DCT ROTAR DCT IPDAB DCT GEKBA DCT VAMTU DCT KOLON DCT GANGU DCT PADKO DCT DIVKO DCT NILDU DCT NENDA N975 ADUXO |
| Aircraft | A20N/M-SDE2E3FGHIRWXY/LB1 |
Departure
| Time | 2026-05-04 19:24 |
|---|---|
| Airport | Zagreb Franjo Tuđman International Airport (LDZA) |
Arrival
| Time | 2026-05-04 21:56 |
|---|---|
| Airport | Adolfo Suárez Madrid–Barajas Airport (LEMD) |
| Time | Latitude | Longitude | Altitude | Speed | Heading |
|---|---|---|---|---|---|
| 2026-05-04 19:02 | 45.74236 | 16.07926 | 359 ft | 0 kts | 136° |
| 2026-05-04 19:12 | 45.74269 | 16.07880 | 362 ft | 4 kts | 136° |
| 2026-05-04 19:12 | 45.74285 | 16.07859 | 359 ft | 4 kts | 135° |
| 2026-05-04 19:13 | 45.74298 | 16.07832 | 359 ft | 4 kts | 68° |
| 2026-05-04 19:13 | 45.74286 | 16.07809 | 364 ft | 1 kts | 46° |
| 2026-05-04 19:16 | 45.74290 | 16.07816 | 362 ft | 3 kts | 46° |
| 2026-05-04 19:17 | 45.74311 | 16.07847 | 361 ft | 6 kts | 46° |
| 2026-05-04 19:17 | 45.74346 | 16.07896 | 365 ft | 9 kts | 32° |
| 2026-05-04 19:17 | 45.74409 | 16.07873 | 361 ft | 11 kts | 320° |
| 2026-05-04 19:17 | 45.74471 | 16.07790 | 360 ft | 13 kts | 317° |
| 2026-05-04 19:18 | 45.74536 | 16.07706 | 359 ft | 10 kts | 330° |
| 2026-05-04 19:18 | 45.74600 | 16.07739 | 361 ft | 12 kts | 46° |
| 2026-05-04 19:18 | 45.74662 | 16.07835 | 359 ft | 15 kts | 46° |
| 2026-05-04 19:18 | 45.74738 | 16.07950 | 364 ft | 15 kts | 47° |
| 2026-05-04 19:19 | 45.74800 | 16.08044 | 358 ft | 10 kts | 47° |
| 2026-05-04 19:19 | 45.74863 | 16.08059 | 359 ft | 10 kts | 327° |
| 2026-05-04 19:19 | 45.74901 | 16.08009 | 358 ft | 8 kts | 317° |
| 2026-05-04 19:19 | 45.74906 | 16.08003 | 358 ft | 0 kts | 317° |
| 2026-05-04 19:20 | 45.74909 | 16.07999 | 365 ft | 2 kts | 317° |
| 2026-05-04 19:21 | 45.74928 | 16.07973 | 358 ft | 6 kts | 317° |
| 2026-05-04 19:21 | 45.74974 | 16.07940 | 362 ft | 9 kts | 356° |
| 2026-05-04 19:21 | 45.75029 | 16.07997 | 363 ft | 12 kts | 49° |
| 2026-05-04 19:21 | 45.75092 | 16.08094 | 357 ft | 15 kts | 47° |
| 2026-05-04 19:22 | 45.75133 | 16.08171 | 357 ft | 9 kts | 73° |
| 2026-05-04 19:22 | 45.75139 | 16.08225 | 364 ft | 1 kts | 71° |
| 2026-05-04 19:22 | 45.75158 | 16.08247 | 362 ft | 6 kts | 19° |
| 2026-05-04 19:22 | 45.75176 | 16.08205 | 361 ft | 7 kts | 243° |
| 2026-05-04 19:23 | 45.75137 | 16.08161 | 364 ft | 9 kts | 227° |
| 2026-05-04 19:23 | 45.75130 | 16.08152 | 362 ft | 0 kts | 227° |
| 2026-05-04 19:23 | 45.75085 | 16.08081 | 357 ft | 40 kts | 227° |
| 2026-05-04 19:23 | 45.74717 | 16.07521 | 361 ft | 112 kts | 226° |
| 2026-05-04 19:24 | 45.74055 | 16.06504 | 507 ft | 154 kts | 227° |
| 2026-05-04 19:24 | 45.73334 | 16.05380 | 1218 ft | 155 kts | 229° |
| 2026-05-04 19:24 | 45.72620 | 16.04235 | 1962 ft | 158 kts | 231° |
| 2026-05-04 19:24 | 45.71875 | 16.03017 | 2611 ft | 169 kts | 231° |
| 2026-05-04 19:25 | 45.71022 | 16.01702 | 3111 ft | 189 kts | 228° |
| 2026-05-04 19:25 | 45.70085 | 16.00276 | 3596 ft | 204 kts | 230° |
| 2026-05-04 19:25 | 45.69133 | 15.98682 | 4015 ft | 224 kts | 231° |
| 2026-05-04 19:25 | 45.68147 | 15.96901 | 4848 ft | 224 kts | 232° |
| 2026-05-04 19:26 | 45.67193 | 15.95179 | 5935 ft | 218 kts | 230° |
| 2026-05-04 19:26 | 45.66236 | 15.93446 | 6672 ft | 226 kts | 229° |
| 2026-05-04 19:26 | 45.65212 | 15.91690 | 7405 ft | 232 kts | 228° |
| 2026-05-04 19:26 | 45.64163 | 15.89929 | 8155 ft | 237 kts | 228° |
| 2026-05-04 19:27 | 45.63084 | 15.88166 | 9091 ft | 232 kts | 227° |
| 2026-05-04 19:27 | 45.61981 | 15.86466 | 9900 ft | 237 kts | 225° |
| 2026-05-04 19:27 | 45.60806 | 15.84712 | 10379 ft | 253 kts | 225° |
| 2026-05-04 19:27 | 45.59548 | 15.82775 | 10676 ft | 278 kts | 227° |
| 2026-05-04 19:28 | 45.58225 | 15.80642 | 10989 ft | 301 kts | 228° |
| 2026-05-04 19:28 | 45.56790 | 15.78273 | 11272 ft | 324 kts | 228° |
| 2026-05-04 19:28 | 45.55298 | 15.75789 | 11932 ft | 332 kts | 229° |
| 2026-05-04 19:28 | 45.53793 | 15.73278 | 12755 ft | 336 kts | 228° |
| 2026-05-04 19:29 | 45.52281 | 15.70760 | 13524 ft | 340 kts | 228° |
| 2026-05-04 19:29 | 45.50726 | 15.68175 | 14251 ft | 345 kts | 228° |
| 2026-05-04 19:29 | 45.49150 | 15.65562 | 14972 ft | 348 kts | 228° |
| 2026-05-04 19:29 | 45.47554 | 15.62921 | 15667 ft | 352 kts | 228° |
| 2026-05-04 19:30 | 45.45950 | 15.60239 | 16342 ft | 357 kts | 231° |
| 2026-05-04 19:30 | 45.44662 | 15.57199 | 17014 ft | 363 kts | 245° |
| 2026-05-04 19:30 | 45.43925 | 15.53780 | 17662 ft | 369 kts | 259° |
| 2026-05-04 19:30 | 45.43672 | 15.50119 | 18320 ft | 374 kts | 264° |
| 2026-05-04 19:31 | 45.43467 | 15.46400 | 18905 ft | 377 kts | 264° |
| 2026-05-04 19:31 | 45.43254 | 15.42652 | 19509 ft | 380 kts | 264° |
| 2026-05-04 19:31 | 45.43038 | 15.38921 | 20093 ft | 383 kts | 264° |
| 2026-05-04 19:31 | 45.42814 | 15.35118 | 20669 ft | 387 kts | 264° |
| 2026-05-04 19:32 | 45.42585 | 15.31274 | 21248 ft | 390 kts | 264° |
| 2026-05-04 19:32 | 45.42351 | 15.27387 | 21823 ft | 394 kts | 264° |
| 2026-05-04 19:32 | 45.42117 | 15.23530 | 22389 ft | 397 kts | 265° |
| 2026-05-04 19:32 | 45.41877 | 15.19588 | 22960 ft | 400 kts | 265° |
| 2026-05-04 19:33 | 45.41633 | 15.15616 | 23514 ft | 404 kts | 265° |
| 2026-05-04 19:33 | 45.41389 | 15.11663 | 23970 ft | 407 kts | 265° |
| 2026-05-04 19:33 | 45.41139 | 15.07636 | 24481 ft | 409 kts | 265° |
| 2026-05-04 19:33 | 45.40887 | 15.03590 | 24981 ft | 411 kts | 265° |
| 2026-05-04 19:34 | 45.40631 | 14.99505 | 25451 ft | 413 kts | 265° |
| 2026-05-04 19:34 | 45.40376 | 14.95458 | 25893 ft | 415 kts | 265° |
| 2026-05-04 19:34 | 45.40114 | 14.91335 | 26345 ft | 418 kts | 265° |
| 2026-05-04 19:34 | 45.39854 | 14.87253 | 26802 ft | 419 kts | 264° |
| 2026-05-04 19:35 | 45.39588 | 14.83114 | 27288 ft | 420 kts | 264° |
| 2026-05-04 19:35 | 45.39320 | 14.78950 | 27726 ft | 422 kts | 264° |
| 2026-05-04 19:35 | 45.39049 | 14.74772 | 28076 ft | 425 kts | 264° |
| 2026-05-04 19:35 | 45.38774 | 14.70561 | 28455 ft | 427 kts | 264° |
| 2026-05-04 19:36 | 45.38500 | 14.66388 | 28845 ft | 429 kts | 264° |
| 2026-05-04 19:36 | 45.38219 | 14.62143 | 29203 ft | 431 kts | 264° |
| 2026-05-04 19:36 | 45.37936 | 14.57886 | 29559 ft | 434 kts | 264° |
| 2026-05-04 19:36 | 45.37649 | 14.53589 | 29915 ft | 436 kts | 264° |
| 2026-05-04 19:37 | 45.37360 | 14.49277 | 30253 ft | 438 kts | 264° |
| 2026-05-04 19:37 | 45.37072 | 14.45012 | 30604 ft | 438 kts | 263° |
| 2026-05-04 19:37 | 45.36780 | 14.40687 | 30991 ft | 438 kts | 263° |
| 2026-05-04 19:37 | 45.36484 | 14.36355 | 31319 ft | 439 kts | 263° |
| 2026-05-04 19:38 | 45.36187 | 14.32033 | 31717 ft | 439 kts | 263° |
| 2026-05-04 19:38 | 45.35889 | 14.27721 | 32158 ft | 436 kts | 264° |
| 2026-05-04 19:38 | 45.35692 | 14.24880 | 32443 ft | 435 kts | 264° |
| 2026-05-04 19:38 | 45.35393 | 14.20598 | 32839 ft | 434 kts | 264° |
| 2026-05-04 19:39 | 45.34997 | 14.14944 | 33389 ft | 432 kts | 264° |
| 2026-05-04 19:39 | 45.34798 | 14.12131 | 33657 ft | 430 kts | 264° |
| 2026-05-04 19:39 | 45.34498 | 14.07896 | 34047 ft | 429 kts | 264° |
| 2026-05-04 19:39 | 45.34196 | 14.03665 | 34386 ft | 427 kts | 264° |
| 2026-05-04 19:40 | 45.33895 | 13.99458 | 34703 ft | 426 kts | 264° |
| 2026-05-04 19:40 | 45.33597 | 13.95318 | 34970 ft | 425 kts | 264° |
| 2026-05-04 19:40 | 45.33296 | 13.91142 | 35257 ft | 424 kts | 264° |
| 2026-05-04 19:40 | 45.32992 | 13.86968 | 35505 ft | 424 kts | 264° |
| 2026-05-04 19:41 | 45.32688 | 13.82800 | 35758 ft | 423 kts | 264° |
| 2026-05-04 19:41 | 45.32384 | 13.78680 | 36083 ft | 420 kts | 264° |
| 2026-05-04 19:41 | 45.32078 | 13.74538 | 36335 ft | 420 kts | 264° |
| 2026-05-04 19:41 | 45.31771 | 13.70407 | 36564 ft | 419 kts | 264° |
| 2026-05-04 19:42 | 45.31463 | 13.66274 | 36785 ft | 419 kts | 264° |
| 2026-05-04 19:42 | 45.31159 | 13.62208 | 37010 ft | 418 kts | 264° |
| 2026-05-04 19:42 | 45.30848 | 13.58081 | 37071 ft | 417 kts | 264° |
| 2026-05-04 19:43 | 45.30230 | 13.49931 | 37069 ft | 416 kts | 264° |
| 2026-05-04 19:43 | 45.29602 | 13.41726 | 37068 ft | 416 kts | 264° |
| 2026-05-04 19:44 | 45.28972 | 13.33584 | 37062 ft | 416 kts | 264° |
| 2026-05-04 19:44 | 45.28335 | 13.25421 | 37060 ft | 416 kts | 264° |
| 2026-05-04 19:45 | 45.27689 | 13.17215 | 37054 ft | 416 kts | 264° |
| 2026-05-04 19:45 | 45.27042 | 13.09071 | 37055 ft | 416 kts | 264° |
| 2026-05-04 19:46 | 45.26384 | 13.00893 | 37051 ft | 416 kts | 263° |
| 2026-05-04 19:46 | 45.25378 | 12.92815 | 37051 ft | 417 kts | 260° |
| 2026-05-04 19:47 | 45.24322 | 12.84718 | 37044 ft | 417 kts | 260° |
| 2026-05-04 19:47 | 45.23272 | 12.76700 | 37053 ft | 414 kts | 260° |
| 2026-05-04 19:48 | 45.22210 | 12.68694 | 37053 ft | 414 kts | 259° |
| 2026-05-04 19:48 | 45.21134 | 12.60641 | 37053 ft | 414 kts | 259° |
| 2026-05-04 19:49 | 45.20060 | 12.52646 | 37050 ft | 414 kts | 259° |
| 2026-05-04 19:49 | 45.18975 | 12.44617 | 37051 ft | 414 kts | 259° |
| 2026-05-04 19:50 | 45.17892 | 12.36644 | 37055 ft | 414 kts | 259° |
| 2026-05-04 19:50 | 45.16795 | 12.28607 | 37055 ft | 414 kts | 259° |
| 2026-05-04 19:51 | 45.15699 | 12.20632 | 37063 ft | 414 kts | 259° |
| 2026-05-04 19:51 | 45.14589 | 12.12591 | 37064 ft | 414 kts | 259° |
| 2026-05-04 19:52 | 45.13482 | 12.04621 | 37068 ft | 414 kts | 259° |
| 2026-05-04 19:52 | 45.12371 | 11.96665 | 37088 ft | 409 kts | 259° |
| 2026-05-04 19:53 | 45.11260 | 11.88742 | 37092 ft | 411 kts | 259° |
| 2026-05-04 19:53 | 45.10142 | 11.80822 | 37092 ft | 411 kts | 259° |
| 2026-05-04 19:54 | 45.09015 | 11.72879 | 37096 ft | 411 kts | 259° |
| 2026-05-04 19:54 | 45.07888 | 11.64973 | 37097 ft | 411 kts | 259° |
| 2026-05-04 19:55 | 45.06752 | 11.57045 | 37097 ft | 411 kts | 258° |
| 2026-05-04 19:55 | 45.05616 | 11.49164 | 37095 ft | 411 kts | 258° |
| 2026-05-04 19:56 | 45.04465 | 11.41215 | 37103 ft | 411 kts | 258° |
| 2026-05-04 19:56 | 45.03317 | 11.33326 | 37104 ft | 411 kts | 258° |
| 2026-05-04 19:57 | 45.02163 | 11.25441 | 37088 ft | 411 kts | 258° |
| 2026-05-04 19:57 | 45.01003 | 11.17558 | 37068 ft | 408 kts | 258° |
| 2026-05-04 19:58 | 44.99836 | 11.09665 | 37106 ft | 409 kts | 258° |
| 2026-05-04 19:58 | 44.98674 | 11.01840 | 37102 ft | 409 kts | 258° |
| 2026-05-04 19:59 | 44.97498 | 10.93967 | 37105 ft | 409 kts | 258° |
| 2026-05-04 19:59 | 44.96318 | 10.86140 | 37099 ft | 409 kts | 257° |
| 2026-05-04 20:00 | 44.94761 | 10.78406 | 37109 ft | 409 kts | 254° |
| 2026-05-04 20:00 | 44.93142 | 10.70697 | 37110 ft | 409 kts | 254° |
| 2026-05-04 20:01 | 44.91532 | 10.63023 | 37104 ft | 409 kts | 254° |
| 2026-05-04 20:01 | 44.89907 | 10.55336 | 37102 ft | 409 kts | 254° |
| 2026-05-04 20:02 | 44.88287 | 10.47713 | 37117 ft | 402 kts | 254° |
| 2026-05-04 20:02 | 44.86669 | 10.40132 | 37115 ft | 404 kts | 254° |
| 2026-05-04 20:03 | 44.85051 | 10.32574 | 37106 ft | 403 kts | 253° |
| 2026-05-04 20:03 | 44.83428 | 10.25017 | 37047 ft | 403 kts | 253° |
| 2026-05-04 20:04 | 44.81791 | 10.17430 | 37047 ft | 403 kts | 253° |
| 2026-05-04 20:04 | 44.80159 | 10.09892 | 37058 ft | 404 kts | 253° |
| 2026-05-04 20:05 | 44.78522 | 10.02358 | 37069 ft | 404 kts | 253° |
| 2026-05-04 20:05 | 44.76876 | 9.94811 | 37097 ft | 404 kts | 253° |
| 2026-05-04 20:06 | 44.75226 | 9.87267 | 37077 ft | 398 kts | 253° |
| 2026-05-04 20:06 | 44.73593 | 9.79826 | 37080 ft | 399 kts | 253° |
| 2026-05-04 20:07 | 44.71952 | 9.72380 | 37082 ft | 398 kts | 253° |
| 2026-05-04 20:07 | 44.70313 | 9.64965 | 37092 ft | 399 kts | 253° |
| 2026-05-04 20:08 | 44.68660 | 9.57517 | 37084 ft | 399 kts | 252° |
| 2026-05-04 20:08 | 44.67014 | 9.50126 | 37083 ft | 398 kts | 252° |
| 2026-05-04 20:09 | 44.65356 | 9.42701 | 37069 ft | 398 kts | 252° |
| 2026-05-04 20:09 | 44.63686 | 9.35258 | 37073 ft | 398 kts | 252° |
| 2026-05-04 20:10 | 44.62023 | 9.27873 | 37073 ft | 399 kts | 252° |
| 2026-05-04 20:10 | 44.60344 | 9.20436 | 37085 ft | 398 kts | 252° |
| 2026-05-04 20:11 | 44.58667 | 9.13031 | 37094 ft | 398 kts | 252° |
| 2026-05-04 20:11 | 44.56992 | 9.05665 | 37096 ft | 401 kts | 252° |
| 2026-05-04 20:12 | 44.55282 | 8.98162 | 37102 ft | 402 kts | 252° |
| 2026-05-04 20:12 | 44.53586 | 8.90753 | 37102 ft | 401 kts | 252° |
| 2026-05-04 20:13 | 44.51868 | 8.83276 | 37103 ft | 401 kts | 251° |
| 2026-05-04 20:13 | 44.50155 | 8.75847 | 37108 ft | 402 kts | 251° |
| 2026-05-04 20:14 | 44.48430 | 8.68387 | 37099 ft | 404 kts | 251° |
| 2026-05-04 20:14 | 44.46689 | 8.60883 | 37099 ft | 404 kts | 251° |
| 2026-05-04 20:15 | 44.44957 | 8.53448 | 37098 ft | 404 kts | 251° |
| 2026-05-04 20:15 | 44.43204 | 8.45945 | 37097 ft | 404 kts | 251° |
| 2026-05-04 20:16 | 44.41458 | 8.38499 | 37095 ft | 404 kts | 251° |
| 2026-05-04 20:16 | 44.39706 | 8.31045 | 37100 ft | 405 kts | 251° |
| 2026-05-04 20:17 | 44.37933 | 8.23536 | 37101 ft | 406 kts | 251° |
| 2026-05-04 20:17 | 44.36169 | 8.16086 | 37113 ft | 406 kts | 251° |
| 2026-05-04 20:18 | 44.34381 | 8.08563 | 37112 ft | 407 kts | 251° |
| 2026-05-04 20:18 | 44.32603 | 8.01106 | 37100 ft | 403 kts | 251° |
| 2026-05-04 20:19 | 44.30835 | 7.93712 | 37103 ft | 404 kts | 251° |
| 2026-05-04 20:19 | 44.29041 | 7.86236 | 37111 ft | 404 kts | 250° |
| 2026-05-04 20:20 | 44.26667 | 7.79200 | 37094 ft | 403 kts | 238° |
| 2026-05-04 20:20 | 44.23126 | 7.73099 | 37108 ft | 406 kts | 225° |
| 2026-05-04 20:21 | 44.18899 | 7.67888 | 37105 ft | 407 kts | 223° |
| 2026-05-04 20:21 | 44.12800 | 7.59774 | 37087 ft | 402 kts | 231° |
| 2026-05-04 20:22 | 44.09138 | 7.53860 | 37084 ft | 399 kts | 230° |
| 2026-05-04 20:22 | 44.05498 | 7.48032 | 37073 ft | 402 kts | 230° |
| 2026-05-04 20:23 | 44.01813 | 7.42156 | 37079 ft | 402 kts | 230° |
| 2026-05-04 20:23 | 43.98150 | 7.36323 | 37059 ft | 402 kts | 230° |
| 2026-05-04 20:24 | 43.94499 | 7.30523 | 37063 ft | 399 kts | 230° |
| 2026-05-04 20:24 | 43.90828 | 7.24703 | 37053 ft | 400 kts | 230° |
| 2026-05-04 20:25 | 43.87176 | 7.18927 | 37052 ft | 400 kts | 230° |
| 2026-05-04 20:25 | 43.83497 | 7.13118 | 37052 ft | 400 kts | 230° |
| 2026-05-04 20:26 | 43.79850 | 7.07372 | 37046 ft | 398 kts | 230° |
| 2026-05-04 20:26 | 43.76185 | 7.01604 | 37047 ft | 399 kts | 230° |
| 2026-05-04 20:27 | 43.72846 | 6.95554 | 37049 ft | 397 kts | 238° |
| 2026-05-04 20:27 | 43.70253 | 6.88810 | 37047 ft | 398 kts | 246° |
| 2026-05-04 20:28 | 43.68521 | 6.82877 | 37058 ft | 398 kts | 247° |
| 2026-05-04 20:28 | 43.66450 | 6.75817 | 37048 ft | 397 kts | 247° |
| 2026-05-04 20:29 | 43.64370 | 6.68783 | 37051 ft | 397 kts | 246° |
| 2026-05-04 20:29 | 43.62270 | 6.61707 | 37049 ft | 396 kts | 246° |
| 2026-05-04 20:30 | 43.59924 | 6.54873 | 37042 ft | 394 kts | 237° |
| 2026-05-04 20:30 | 43.56942 | 6.48557 | 37013 ft | 394 kts | 237° |
| 2026-05-04 20:31 | 43.53948 | 6.42216 | 37016 ft | 394 kts | 237° |
| 2026-05-04 20:31 | 43.50961 | 6.35890 | 37010 ft | 394 kts | 237° |
| 2026-05-04 20:32 | 43.47972 | 6.29575 | 37008 ft | 394 kts | 237° |
| 2026-05-04 20:32 | 43.44992 | 6.23294 | 37017 ft | 393 kts | 237° |
| 2026-05-04 20:33 | 43.41993 | 6.16987 | 37010 ft | 393 kts | 237° |
| 2026-05-04 20:33 | 43.39008 | 6.10722 | 37010 ft | 393 kts | 236° |
| 2026-05-04 20:34 | 43.36002 | 6.04426 | 37000 ft | 394 kts | 236° |
| 2026-05-04 20:34 | 43.32993 | 5.98138 | 36517 ft | 396 kts | 236° |
| 2026-05-04 20:35 | 43.31475 | 5.94971 | 36377 ft | 394 kts | 236° |
| 2026-05-04 20:35 | 43.29981 | 5.91858 | 36477 ft | 395 kts | 236° |
| 2026-05-04 20:35 | 43.28462 | 5.88695 | 36607 ft | 396 kts | 236° |
| 2026-05-04 20:35 | 43.26943 | 5.85537 | 36719 ft | 394 kts | 236° |
| 2026-05-04 20:36 | 43.25424 | 5.82382 | 36847 ft | 395 kts | 236° |
| 2026-05-04 20:36 | 43.23926 | 5.79272 | 36970 ft | 395 kts | 236° |
| 2026-05-04 20:36 | 43.20890 | 5.72982 | 36982 ft | 394 kts | 236° |
| 2026-05-04 20:37 | 43.17861 | 5.66720 | 36986 ft | 397 kts | 236° |
| 2026-05-04 20:37 | 43.14800 | 5.60405 | 36974 ft | 396 kts | 236° |
| 2026-05-04 20:38 | 43.11768 | 5.54163 | 36974 ft | 396 kts | 236° |
| 2026-05-04 20:38 | 43.08702 | 5.47864 | 36973 ft | 396 kts | 236° |
| 2026-05-04 20:39 | 43.05658 | 5.41624 | 36968 ft | 396 kts | 236° |
| 2026-05-04 20:39 | 43.02585 | 5.35339 | 36971 ft | 396 kts | 236° |
| 2026-05-04 20:40 | 42.99534 | 5.29110 | 36959 ft | 397 kts | 236° |
| 2026-05-04 20:40 | 42.96452 | 5.22832 | 36959 ft | 397 kts | 236° |
| 2026-05-04 20:41 | 42.93380 | 5.16587 | 36951 ft | 397 kts | 236° |
| 2026-05-04 20:41 | 42.90303 | 5.10346 | 36933 ft | 397 kts | 236° |
| 2026-05-04 20:42 | 42.87215 | 5.04095 | 36957 ft | 397 kts | 236° |
| 2026-05-04 20:42 | 42.84130 | 4.97864 | 36955 ft | 397 kts | 236° |
| 2026-05-04 20:43 | 42.81022 | 4.91599 | 36953 ft | 398 kts | 235° |
| 2026-05-04 20:43 | 42.77929 | 4.85379 | 36945 ft | 399 kts | 235° |
| 2026-05-04 20:44 | 42.74811 | 4.79121 | 36946 ft | 399 kts | 235° |
| 2026-05-04 20:44 | 42.71705 | 4.72898 | 36949 ft | 399 kts | 235° |
| 2026-05-04 20:45 | 42.68576 | 4.66645 | 36944 ft | 399 kts | 235° |
| 2026-05-04 20:45 | 42.65460 | 4.60428 | 36942 ft | 399 kts | 235° |
| 2026-05-04 20:46 | 42.62313 | 4.54165 | 36938 ft | 400 kts | 235° |
| 2026-05-04 20:46 | 42.59169 | 4.47921 | 36932 ft | 400 kts | 235° |
| 2026-05-04 20:47 | 42.56033 | 4.41704 | 36929 ft | 400 kts | 235° |
| 2026-05-04 20:47 | 42.52895 | 4.35495 | 36912 ft | 400 kts | 235° |
| 2026-05-04 20:48 | 42.49731 | 4.29252 | 36921 ft | 400 kts | 235° |
| 2026-05-04 20:48 | 42.46586 | 4.23055 | 36921 ft | 400 kts | 235° |
| 2026-05-04 20:49 | 42.43410 | 4.16813 | 36918 ft | 401 kts | 235° |
| 2026-05-04 20:49 | 42.40257 | 4.10626 | 36915 ft | 401 kts | 235° |
| 2026-05-04 20:50 | 42.37066 | 4.04379 | 36919 ft | 402 kts | 235° |
| 2026-05-04 20:50 | 42.33895 | 3.98184 | 36921 ft | 402 kts | 235° |
| 2026-05-04 20:51 | 42.30708 | 3.91970 | 36921 ft | 402 kts | 235° |
| 2026-05-04 20:51 | 42.27537 | 3.85795 | 36922 ft | 402 kts | 235° |
| 2026-05-04 20:52 | 42.24339 | 3.79609 | 36940 ft | 402 kts | 234° |
| 2026-05-04 20:52 | 42.21080 | 3.73443 | 36922 ft | 402 kts | 234° |
| 2026-05-04 20:53 | 42.17840 | 3.67315 | 36922 ft | 402 kts | 234° |
| 2026-05-04 20:53 | 42.14606 | 3.61195 | 36919 ft | 402 kts | 234° |
| 2026-05-04 20:54 | 42.11353 | 3.55050 | 36924 ft | 401 kts | 234° |
| 2026-05-04 20:54 | 42.08099 | 3.48917 | 36914 ft | 401 kts | 234° |
| 2026-05-04 20:55 | 42.04867 | 3.42837 | 36912 ft | 401 kts | 234° |
| 2026-05-04 20:55 | 42.01615 | 3.36731 | 36911 ft | 401 kts | 234° |
| 2026-05-04 20:56 | 41.98360 | 3.30632 | 36906 ft | 401 kts | 234° |
| 2026-05-04 20:56 | 41.95124 | 3.24581 | 36904 ft | 400 kts | 234° |
| 2026-05-04 20:57 | 41.91869 | 3.18507 | 36909 ft | 399 kts | 234° |
| 2026-05-04 20:57 | 41.88632 | 3.12479 | 36912 ft | 399 kts | 234° |
| 2026-05-04 20:58 | 41.85370 | 3.06416 | 36906 ft | 399 kts | 234° |
| 2026-05-04 20:58 | 41.82118 | 3.00383 | 36902 ft | 400 kts | 234° |
| 2026-05-04 20:59 | 41.78847 | 2.94327 | 36903 ft | 400 kts | 234° |
| 2026-05-04 20:59 | 41.75601 | 2.88329 | 36904 ft | 400 kts | 234° |
| 2026-05-04 21:00 | 41.72325 | 2.82289 | 36917 ft | 399 kts | 234° |
| 2026-05-04 21:00 | 41.69068 | 2.76294 | 36931 ft | 399 kts | 234° |
| 2026-05-04 21:01 | 41.65714 | 2.70338 | 36928 ft | 399 kts | 232° |
| 2026-05-04 21:01 | 41.62296 | 2.64532 | 36921 ft | 399 kts | 232° |
| 2026-05-04 21:02 | 41.58876 | 2.58695 | 36928 ft | 399 kts | 232° |
| 2026-05-04 21:02 | 41.55452 | 2.52834 | 36933 ft | 399 kts | 232° |
| 2026-05-04 21:03 | 41.52031 | 2.46987 | 36937 ft | 398 kts | 232° |
| 2026-05-04 21:03 | 41.48630 | 2.41181 | 36946 ft | 398 kts | 232° |
| 2026-05-04 21:04 | 41.45226 | 2.35382 | 36944 ft | 398 kts | 232° |
| 2026-05-04 21:04 | 41.41800 | 2.29559 | 36949 ft | 398 kts | 232° |
| 2026-05-04 21:05 | 41.38384 | 2.23764 | 36951 ft | 399 kts | 232° |
| 2026-05-04 21:05 | 41.34936 | 2.17924 | 36956 ft | 400 kts | 232° |
| 2026-05-04 21:06 | 41.31926 | 2.11758 | 36963 ft | 399 kts | 244° |
| 2026-05-04 21:06 | 41.30067 | 2.04791 | 36963 ft | 401 kts | 256° |
| 2026-05-04 21:07 | 41.29184 | 1.97477 | 36966 ft | 403 kts | 259° |
| 2026-05-04 21:07 | 41.28341 | 1.90118 | 36987 ft | 403 kts | 259° |
| 2026-05-04 21:08 | 41.27482 | 1.82731 | 36962 ft | 404 kts | 259° |
| 2026-05-04 21:08 | 41.26616 | 1.75328 | 36966 ft | 404 kts | 259° |
| 2026-05-04 21:09 | 41.25754 | 1.67982 | 36966 ft | 405 kts | 259° |
| 2026-05-04 21:09 | 41.24880 | 1.60561 | 36967 ft | 405 kts | 259° |
| 2026-05-04 21:10 | 41.24010 | 1.53203 | 36969 ft | 404 kts | 259° |
| 2026-05-04 21:10 | 41.23133 | 1.45838 | 36960 ft | 404 kts | 259° |
| 2026-05-04 21:11 | 41.22251 | 1.38465 | 36960 ft | 403 kts | 259° |
| 2026-05-04 21:11 | 41.21370 | 1.31143 | 36964 ft | 403 kts | 259° |
| 2026-05-04 21:12 | 41.20483 | 1.23814 | 36966 ft | 403 kts | 259° |
| 2026-05-04 21:12 | 41.19587 | 1.16447 | 36966 ft | 403 kts | 259° |
| 2026-05-04 21:13 | 41.18688 | 1.09117 | 36969 ft | 404 kts | 259° |
| 2026-05-04 21:13 | 41.17778 | 1.01730 | 36971 ft | 404 kts | 259° |
| 2026-05-04 21:14 | 41.16870 | 0.94406 | 36966 ft | 404 kts | 259° |
| 2026-05-04 21:14 | 41.15954 | 0.87060 | 36961 ft | 404 kts | 259° |
| 2026-05-04 21:15 | 41.15035 | 0.79712 | 36964 ft | 404 kts | 259° |
| 2026-05-04 21:15 | 41.14106 | 0.72340 | 36968 ft | 402 kts | 259° |
| 2026-05-04 21:16 | 41.13185 | 0.65062 | 36962 ft | 402 kts | 259° |
| 2026-05-04 21:16 | 41.12257 | 0.57736 | 36971 ft | 401 kts | 259° |
| 2026-05-04 21:17 | 41.11333 | 0.50475 | 36966 ft | 401 kts | 259° |
| 2026-05-04 21:17 | 41.10554 | 0.44390 | 36971 ft | 401 kts | 259° |
| 2026-05-04 21:18 | 41.09609 | 0.37079 | 36985 ft | 401 kts | 259° |
| 2026-05-04 21:18 | 41.08666 | 0.29817 | 36990 ft | 401 kts | 259° |
| 2026-05-04 21:19 | 41.07713 | 0.22511 | 36981 ft | 401 kts | 259° |
| 2026-05-04 21:19 | 41.06758 | 0.15233 | 36979 ft | 401 kts | 259° |
| 2026-05-04 21:20 | 41.05806 | 0.08007 | 36983 ft | 400 kts | 259° |
| 2026-05-04 21:20 | 41.04840 | 0.00716 | 36978 ft | 400 kts | 258° |
| 2026-05-04 21:21 | 41.03877 | -0.06515 | 36989 ft | 400 kts | 258° |
| 2026-05-04 21:21 | 41.02905 | -0.13778 | 36987 ft | 400 kts | 258° |
| 2026-05-04 21:22 | 41.01935 | -0.20989 | 36982 ft | 399 kts | 258° |
| 2026-05-04 21:22 | 41.00859 | -0.28200 | 36981 ft | 398 kts | 254° |
| 2026-05-04 21:23 | 40.99135 | -0.35132 | 36981 ft | 397 kts | 250° |
| 2026-05-04 21:23 | 40.97263 | -0.42033 | 36980 ft | 397 kts | 250° |
| 2026-05-04 21:24 | 40.95402 | -0.48910 | 36990 ft | 397 kts | 250° |
| 2026-05-04 21:24 | 40.93538 | -0.55772 | 36991 ft | 397 kts | 250° |
| 2026-05-04 21:25 | 40.91660 | -0.62660 | 37002 ft | 398 kts | 250° |
| 2026-05-04 21:25 | 40.89780 | -0.69536 | 37013 ft | 397 kts | 250° |
| 2026-05-04 21:26 | 40.87906 | -0.76374 | 37021 ft | 397 kts | 250° |
| 2026-05-04 21:26 | 40.86015 | -0.83248 | 37025 ft | 397 kts | 250° |
| 2026-05-04 21:27 | 40.84124 | -0.90092 | 37006 ft | 397 kts | 250° |
| 2026-05-04 21:27 | 40.82232 | -0.96919 | 37015 ft | 397 kts | 250° |
| 2026-05-04 21:28 | 40.80329 | -1.03768 | 37019 ft | 396 kts | 250° |
| 2026-05-04 21:28 | 40.79376 | -1.07191 | 36885 ft | 396 kts | 250° |
| 2026-05-04 21:28 | 40.78437 | -1.10560 | 36623 ft | 394 kts | 250° |
| 2026-05-04 21:29 | 40.77487 | -1.13967 | 36377 ft | 393 kts | 250° |
| 2026-05-04 21:29 | 40.76554 | -1.17304 | 36149 ft | 391 kts | 250° |
| 2026-05-04 21:29 | 40.75613 | -1.20666 | 35900 ft | 389 kts | 250° |
| 2026-05-04 21:29 | 40.74677 | -1.24008 | 35652 ft | 389 kts | 250° |
| 2026-05-04 21:30 | 40.73737 | -1.27358 | 35409 ft | 389 kts | 250° |
| 2026-05-04 21:30 | 40.72800 | -1.30698 | 35172 ft | 388 kts | 250° |
| 2026-05-04 21:30 | 40.71864 | -1.34030 | 34927 ft | 387 kts | 250° |
| 2026-05-04 21:30 | 40.70924 | -1.37375 | 34692 ft | 387 kts | 250° |
| 2026-05-04 21:31 | 40.69060 | -1.43992 | 34233 ft | 386 kts | 250° |
| 2026-05-04 21:31 | 40.68116 | -1.47336 | 33743 ft | 388 kts | 250° |
| 2026-05-04 21:31 | 40.67178 | -1.50652 | 32837 ft | 393 kts | 250° |
| 2026-05-04 21:32 | 40.66217 | -1.54051 | 32057 ft | 393 kts | 249° |
| 2026-05-04 21:32 | 40.65261 | -1.57427 | 31263 ft | 393 kts | 249° |
| 2026-05-04 21:32 | 40.64321 | -1.60739 | 30716 ft | 387 kts | 249° |
| 2026-05-04 21:32 | 40.63378 | -1.64055 | 30137 ft | 383 kts | 249° |
| 2026-05-04 21:33 | 40.62448 | -1.67324 | 29508 ft | 378 kts | 249° |
| 2026-05-04 21:33 | 40.61532 | -1.70540 | 28944 ft | 372 kts | 249° |
| 2026-05-04 21:33 | 40.60631 | -1.73703 | 28386 ft | 366 kts | 249° |
| 2026-05-04 21:33 | 40.59749 | -1.76789 | 27846 ft | 361 kts | 249° |
| 2026-05-04 21:34 | 40.58869 | -1.79868 | 27288 ft | 357 kts | 249° |
| 2026-05-04 21:34 | 40.58000 | -1.82908 | 26755 ft | 353 kts | 249° |
| 2026-05-04 21:34 | 40.57137 | -1.85921 | 26209 ft | 349 kts | 249° |
| 2026-05-04 21:34 | 40.56281 | -1.88902 | 25681 ft | 346 kts | 249° |
| 2026-05-04 21:35 | 40.55440 | -1.91830 | 25159 ft | 344 kts | 249° |
| 2026-05-04 21:35 | 40.54591 | -1.94785 | 24621 ft | 342 kts | 249° |
| 2026-05-04 21:35 | 40.53752 | -1.97699 | 24101 ft | 340 kts | 249° |
| 2026-05-04 21:35 | 40.52914 | -2.00607 | 23530 ft | 340 kts | 249° |
| 2026-05-04 21:36 | 40.52090 | -2.03461 | 23005 ft | 336 kts | 249° |
| 2026-05-04 21:36 | 40.51199 | -2.06282 | 22489 ft | 332 kts | 244° |
| 2026-05-04 21:36 | 40.50066 | -2.08966 | 21978 ft | 348 kts | 239° |
| 2026-05-04 21:36 | 40.48761 | -2.11732 | 21422 ft | 367 kts | 239° |
| 2026-05-04 21:37 | 40.47425 | -2.14583 | 21083 ft | 360 kts | 239° |
| 2026-05-04 21:37 | 40.46139 | -2.17332 | 21004 ft | 347 kts | 239° |
| 2026-05-04 21:37 | 40.44869 | -2.20049 | 20997 ft | 352 kts | 239° |
| 2026-05-04 21:37 | 40.43580 | -2.22806 | 20997 ft | 354 kts | 239° |
| 2026-05-04 21:38 | 40.42291 | -2.25558 | 21004 ft | 352 kts | 239° |
| 2026-05-04 21:38 | 40.41027 | -2.28255 | 20918 ft | 351 kts | 239° |
| 2026-05-04 21:38 | 40.39742 | -2.30991 | 20197 ft | 352 kts | 239° |
| 2026-05-04 21:38 | 40.38434 | -2.33776 | 18843 ft | 363 kts | 239° |
| 2026-05-04 21:39 | 40.37099 | -2.36617 | 17696 ft | 365 kts | 239° |
| 2026-05-04 21:39 | 40.35801 | -2.39374 | 17147 ft | 350 kts | 239° |
| 2026-05-04 21:39 | 40.34561 | -2.42004 | 16917 ft | 327 kts | 239° |
| 2026-05-04 21:39 | 40.33400 | -2.44463 | 16717 ft | 307 kts | 239° |
| 2026-05-04 21:40 | 40.32314 | -2.46765 | 16547 ft | 287 kts | 239° |
| 2026-05-04 21:40 | 40.31294 | -2.48925 | 16392 ft | 268 kts | 239° |
| 2026-05-04 21:40 | 40.30350 | -2.50922 | 16172 ft | 256 kts | 239° |
| 2026-05-04 21:40 | 40.29417 | -2.52897 | 15851 ft | 253 kts | 239° |
| 2026-05-04 21:41 | 40.28493 | -2.54852 | 15466 ft | 252 kts | 238° |
| 2026-05-04 21:41 | 40.27567 | -2.56810 | 15095 ft | 252 kts | 238° |
| 2026-05-04 21:41 | 40.26678 | -2.58757 | 14724 ft | 250 kts | 244° |
| 2026-05-04 21:41 | 40.26126 | -2.60920 | 14309 ft | 252 kts | 258° |
| 2026-05-04 21:42 | 40.26036 | -2.63202 | 14072 ft | 248 kts | 268° |
| 2026-05-04 21:42 | 40.26051 | -2.65458 | 13639 ft | 250 kts | 267° |
| 2026-05-04 21:42 | 40.26047 | -2.67746 | 13172 ft | 251 kts | 266° |
| 2026-05-04 21:42 | 40.26038 | -2.70024 | 12870 ft | 247 kts | 266° |
| 2026-05-04 21:43 | 40.26029 | -2.72223 | 12630 ft | 243 kts | 267° |
| 2026-05-04 21:43 | 40.26019 | -2.74450 | 12384 ft | 245 kts | 267° |
| 2026-05-04 21:43 | 40.26009 | -2.76684 | 12133 ft | 244 kts | 267° |
| 2026-05-04 21:43 | 40.26000 | -2.78880 | 11889 ft | 244 kts | 267° |
| 2026-05-04 21:44 | 40.25990 | -2.81119 | 11647 ft | 244 kts | 267° |
| 2026-05-04 21:44 | 40.25981 | -2.83338 | 11393 ft | 243 kts | 268° |
| 2026-05-04 21:44 | 40.25971 | -2.85536 | 11150 ft | 244 kts | 268° |
| 2026-05-04 21:44 | 40.25961 | -2.87758 | 10901 ft | 243 kts | 268° |
| 2026-05-04 21:45 | 40.25950 | -2.89975 | 10654 ft | 243 kts | 268° |
| 2026-05-04 21:45 | 40.25939 | -2.92186 | 10398 ft | 243 kts | 268° |
| 2026-05-04 21:45 | 40.25927 | -2.94396 | 10158 ft | 243 kts | 268° |
| 2026-05-04 21:45 | 40.25915 | -2.96615 | 9913 ft | 243 kts | 268° |
| 2026-05-04 21:46 | 40.25903 | -2.98798 | 9651 ft | 242 kts | 268° |
| 2026-05-04 21:46 | 40.25891 | -3.00998 | 9405 ft | 241 kts | 268° |
| 2026-05-04 21:46 | 40.25879 | -3.03193 | 9161 ft | 240 kts | 269° |
| 2026-05-04 21:46 | 40.25866 | -3.05386 | 8916 ft | 239 kts | 269° |
| 2026-05-04 21:47 | 40.25852 | -3.07558 | 8671 ft | 237 kts | 269° |
| 2026-05-04 21:47 | 40.25839 | -3.09726 | 8432 ft | 238 kts | 269° |
| 2026-05-04 21:47 | 40.25824 | -3.11860 | 8192 ft | 237 kts | 269° |
| 2026-05-04 21:47 | 40.25862 | -3.14009 | 7972 ft | 236 kts | 276° |
| 2026-05-04 21:48 | 40.26137 | -3.16133 | 7750 ft | 236 kts | 279° |
| 2026-05-04 21:48 | 40.26426 | -3.18251 | 7524 ft | 234 kts | 279° |
| 2026-05-04 21:48 | 40.26704 | -3.20324 | 7298 ft | 233 kts | 279° |
| 2026-05-04 21:48 | 40.26982 | -3.22424 | 7086 ft | 234 kts | 279° |
| 2026-05-04 21:49 | 40.27258 | -3.24522 | 6931 ft | 233 kts | 279° |
| 2026-05-04 21:49 | 40.27532 | -3.26605 | 6682 ft | 231 kts | 279° |
| 2026-05-04 21:49 | 40.27805 | -3.28684 | 6324 ft | 231 kts | 279° |
| 2026-05-04 21:49 | 40.28075 | -3.30742 | 6074 ft | 227 kts | 280° |
| 2026-05-04 21:50 | 40.28366 | -3.32707 | 6003 ft | 214 kts | 286° |
| 2026-05-04 21:50 | 40.28862 | -3.34466 | 6014 ft | 197 kts | 291° |
| 2026-05-04 21:50 | 40.29334 | -3.36055 | 6000 ft | 177 kts | 290° |
| 2026-05-04 21:50 | 40.29745 | -3.37464 | 6011 ft | 158 kts | 290° |
| 2026-05-04 21:51 | 40.30219 | -3.38695 | 5920 ft | 147 kts | 305° |
| 2026-05-04 21:51 | 40.30915 | -3.39706 | 5759 ft | 149 kts | 316° |
| 2026-05-04 21:51 | 40.31697 | -3.40559 | 5582 ft | 148 kts | 321° |
| 2026-05-04 21:51 | 40.32513 | -3.41375 | 5396 ft | 147 kts | 320° |
| 2026-05-04 21:52 | 40.33321 | -3.42195 | 5210 ft | 146 kts | 320° |
| 2026-05-04 21:52 | 40.34130 | -3.43014 | 5021 ft | 147 kts | 321° |
| 2026-05-04 21:52 | 40.34939 | -3.43834 | 4831 ft | 145 kts | 321° |
| 2026-05-04 21:52 | 40.35725 | -3.44632 | 4636 ft | 144 kts | 321° |
| 2026-05-04 21:53 | 40.36524 | -3.45442 | 4441 ft | 144 kts | 321° |
| 2026-05-04 21:53 | 40.37321 | -3.46250 | 4247 ft | 144 kts | 321° |
| 2026-05-04 21:53 | 40.38108 | -3.47050 | 4050 ft | 143 kts | 321° |
| 2026-05-04 21:53 | 40.38893 | -3.47846 | 3879 ft | 142 kts | 321° |
| 2026-05-04 21:54 | 40.39677 | -3.48642 | 3682 ft | 143 kts | 321° |
| 2026-05-04 21:54 | 40.40458 | -3.49435 | 3497 ft | 144 kts | 321° |
| 2026-05-04 21:54 | 40.41251 | -3.50240 | 3303 ft | 143 kts | 321° |
| 2026-05-04 21:54 | 40.42038 | -3.51040 | 3108 ft | 143 kts | 321° |
| 2026-05-04 21:55 | 40.42834 | -3.51850 | 2887 ft | 146 kts | 320° |
| 2026-05-04 21:55 | 40.43624 | -3.52651 | 2676 ft | 144 kts | 320° |
| 2026-05-04 21:55 | 40.44422 | -3.53465 | 2484 ft | 145 kts | 320° |
| 2026-05-04 21:55 | 40.45221 | -3.54275 | 2285 ft | 144 kts | 320° |
| 2026-05-04 21:56 | 40.46004 | -3.55072 | 2100 ft | 144 kts | 320° |
| 2026-05-04 21:56 | 40.46801 | -3.55877 | 1979 ft | 143 kts | 320° |
| 2026-05-04 21:56 | 40.47483 | -3.56580 | 1993 ft | 97 kts | 323° |
| 2026-05-04 21:56 | 40.47857 | -3.56959 | 1996 ft | 40 kts | 322° |
| 2026-05-04 21:57 | 40.47991 | -3.57094 | 2003 ft | 17 kts | 323° |
| 2026-05-04 21:57 | 40.48079 | -3.57207 | 2002 ft | 19 kts | 309° |
| 2026-05-04 21:57 | 40.48150 | -3.57357 | 2003 ft | 21 kts | 295° |
| 2026-05-04 21:57 | 40.48205 | -3.57521 | 1998 ft | 18 kts | 292° |
| 2026-05-04 21:58 | 40.48285 | -3.57669 | 1996 ft | 22 kts | 320° |
| 2026-05-04 21:58 | 40.48416 | -3.57788 | 1992 ft | 16 kts | 327° |
| 2026-05-04 21:58 | 40.48499 | -3.57851 | 1993 ft | 10 kts | 331° |
| 2026-05-04 21:58 | 40.48557 | -3.57892 | 1997 ft | 8 kts | 332° |
| 2026-05-04 21:59 | 40.48595 | -3.57943 | 1999 ft | 8 kts | 288° |
| 2026-05-04 21:59 | 40.48597 | -3.58017 | 2002 ft | 8 kts | 270° |
| 2026-05-04 21:59 | 40.48597 | -3.58091 | 2003 ft | 9 kts | 270° |
| 2026-05-04 21:59 | 40.48597 | -3.58176 | 2004 ft | 10 kts | 270° |
| 2026-05-04 22:00 | 40.48597 | -3.58290 | 2009 ft | 14 kts | 269° |
| 2026-05-04 22:00 | 40.48596 | -3.58414 | 2012 ft | 14 kts | 269° |
| 2026-05-04 22:00 | 40.48596 | -3.58533 | 2018 ft | 12 kts | 270° |
| 2026-05-04 22:00 | 40.48596 | -3.58644 | 2029 ft | 13 kts | 270° |
| 2026-05-04 22:01 | 40.48598 | -3.58762 | 2029 ft | 12 kts | 283° |
| 2026-05-04 22:01 | 40.48671 | -3.58810 | 2026 ft | 14 kts | 360° |
| 2026-05-04 22:01 | 40.48778 | -3.58810 | 2024 ft | 17 kts | 359° |
| 2026-05-04 22:01 | 40.48899 | -3.58812 | 2024 ft | 15 kts | 360° |
| 2026-05-04 22:02 | 40.48965 | -3.58844 | 2025 ft | 9 kts | 279° |
| 2026-05-04 22:02 | 40.48965 | -3.58926 | 2022 ft | 6 kts | 269° |
| 2026-05-04 22:02 | 40.48965 | -3.58943 | 2022 ft | 2 kts | 269° |
| 2026-05-04 22:02 | 40.48965 | -3.58961 | 2022 ft | 1 kts | 269° |
| 2026-05-04 22:03 | 40.48965 | -3.58965 | 2022 ft | 0 kts | 269° |